sensor_id;sensor_type;location;lat;lon;timestamp;P1;P2;P0
80289;PMS7003;69592;44.804;-0.550;2024-02-28T00:01:06;3.25;3.25;3.00
80289;PMS7003;69592;44.804;-0.550;2024-02-28T00:03:31;5.50;4.50;4.00
80289;PMS7003;69592;44.804;-0.550;2024-02-28T00:05:58;3.25;3.25;3.00
80289;PMS7003;69592;44.804;-0.550;2024-02-28T00:08:23;3.75;3.75;3.75
80289;PMS7003;69592;44.804;-0.550;2024-02-28T00:10:49;4.25;4.00;2.25
80289;PMS7003;69592;44.804;-0.550;2024-02-28T00:13:14;6.00;4.00;3.00
80289;PMS7003;69592;44.804;-0.550;2024-02-28T00:15:40;4.50;4.50;2.50
80289;PMS7003;69592;44.804;-0.550;2024-02-28T00:18:06;4.00;4.00;2.50
80289;PMS7003;69592;44.804;-0.550;2024-02-28T00:20:32;5.75;4.25;3.75
80289;PMS7003;69592;44.804;-0.550;2024-02-28T00:22:57;4.00;3.50;3.00
80289;PMS7003;69592;44.804;-0.550;2024-02-28T00:25:23;3.00;3.00;3.00
80289;PMS7003;69592;44.804;-0.550;2024-02-28T00:27:48;4.00;4.00;3.00
80289;PMS7003;69592;44.804;-0.550;2024-02-28T00:30:13;6.50;4.50;3.00
80289;PMS7003;69592;44.804;-0.550;2024-02-28T00:32:39;3.50;3.50;3.00
80289;PMS7003;69592;44.804;-0.550;2024-02-28T00:35:04;6.00;6.00;4.00
80289;PMS7003;69592;44.804;-0.550;2024-02-28T00:37:30;4.00;3.00;1.00
80289;PMS7003;69592;44.804;-0.550;2024-02-28T00:39:55;4.25;4.25;4.00
80289;PMS7003;69592;44.804;-0.550;2024-02-28T00:42:21;1.00;1.00;1.00
80289;PMS7003;69592;44.804;-0.550;2024-02-28T00:44:46;5.75;5.75;3.75
80289;PMS7003;69592;44.804;-0.550;2024-02-28T00:47:11;6.00;6.00;4.00
80289;PMS7003;69592;44.804;-0.550;2024-02-28T00:49:37;6.50;4.50;3.00
80289;PMS7003;69592;44.804;-0.550;2024-02-28T00:52:05;4.00;4.00;3.50
80289;PMS7003;69592;44.804;-0.550;2024-02-28T00:54:30;7.00;4.75;4.00
80289;PMS7003;69592;44.804;-0.550;2024-02-28T00:56:56;4.00;4.00;3.25
80289;PMS7003;69592;44.804;-0.550;2024-02-28T00:59:21;6.75;4.75;3.50
80289;PMS7003;69592;44.804;-0.550;2024-02-28T01:01:48;3.00;3.00;2.00
80289;PMS7003;69592;44.804;-0.550;2024-02-28T01:04:13;8.00;6.00;5.00
80289;PMS7003;69592;44.804;-0.550;2024-02-28T01:06:38;2.00;2.00;2.00
80289;PMS7003;69592;44.804;-0.550;2024-02-28T01:09:04;4.75;3.00;3.00
80289;PMS7003;69592;44.804;-0.550;2024-02-28T01:11:29;6.75;3.50;3.50
80289;PMS7003;69592;44.804;-0.550;2024-02-28T01:13:55;4.50;4.50;4.00
80289;PMS7003;69592;44.804;-0.550;2024-02-28T01:16:20;0.50;0.00;0.00
80289;PMS7003;69592;44.804;-0.550;2024-02-28T01:18:45;3.75;3.25;3.00
80289;PMS7003;69592;44.804;-0.550;2024-02-28T01:21:11;3.00;3.00;3.00
80289;PMS7003;69592;44.804;-0.550;2024-02-28T01:23:36;1.50;1.50;1.00
80289;PMS7003;69592;44.804;-0.550;2024-02-28T01:26:01;4.00;4.00;3.00
80289;PMS7003;69592;44.804;-0.550;2024-02-28T01:28:31;4.75;4.75;3.50
80289;PMS7003;69592;44.804;-0.550;2024-02-28T01:30:56;1.50;1.50;1.00
80289;PMS7003;69592;44.804;-0.550;2024-02-28T01:33:21;7.00;6.00;4.00
80289;PMS7003;69592;44.804;-0.550;2024-02-28T01:35:50;5.75;5.50;3.25
80289;PMS7003;69592;44.804;-0.550;2024-02-28T01:38:15;4.00;3.75;3.00
80289;PMS7003;69592;44.804;-0.550;2024-02-28T01:40:44;8.50;4.50;3.00
80289;PMS7003;69592;44.804;-0.550;2024-02-28T01:43:11;3.25;3.25;3.00
80289;PMS7003;69592;44.804;-0.550;2024-02-28T01:45:36;4.00;3.50;3.00
80289;PMS7003;69592;44.804;-0.550;2024-02-28T01:48:01;2.50;2.50;1.00
80289;PMS7003;69592;44.804;-0.550;2024-02-28T01:50:27;5.50;3.00;2.00
80289;PMS7003;69592;44.804;-0.550;2024-02-28T01:52:52;3.00;3.00;1.00
80289;PMS7003;69592;44.804;-0.550;2024-02-28T01:55:18;2.00;2.00;1.00
80289;PMS7003;69592;44.804;-0.550;2024-02-28T01:57:43;4.75;3.00;2.00
80289;PMS7003;69592;44.804;-0.550;2024-02-28T02:00:08;3.50;3.50;2.50
80289;PMS7003;69592;44.804;-0.550;2024-02-28T02:02:34;5.00;5.00;3.50
80289;PMS7003;69592;44.804;-0.550;2024-02-28T02:04:59;4.00;4.00;3.00
80289;PMS7003;69592;44.804;-0.550;2024-02-28T02:07:25;3.00;3.00;3.00
80289;PMS7003;69592;44.804;-0.550;2024-02-28T02:09:51;2.50;2.50;2.00
80289;PMS7003;69592;44.804;-0.550;2024-02-28T02:12:17;5.50;3.50;3.00
80289;PMS7003;69592;44.804;-0.550;2024-02-28T02:14:46;5.50;4.50;4.00
80289;PMS7003;69592;44.804;-0.550;2024-02-28T02:17:12;7.00;4.00;3.00
80289;PMS7003;69592;44.804;-0.550;2024-02-28T02:19:37;6.00;4.00;3.25
80289;PMS7003;69592;44.804;-0.550;2024-02-28T02:22:03;6.00;4.00;3.00
80289;PMS7003;69592;44.804;-0.550;2024-02-28T02:24:30;7.25;4.00;3.00
80289;PMS7003;69592;44.804;-0.550;2024-02-28T02:26:57;3.00;3.00;3.00
80289;PMS7003;69592;44.804;-0.550;2024-02-28T02:29:23;4.00;4.00;4.00
80289;PMS7003;69592;44.804;-0.550;2024-02-28T02:31:48;2.00;2.00;2.00
80289;PMS7003;69592;44.804;-0.550;2024-02-28T02:34:13;5.50;5.50;3.00
80289;PMS7003;69592;44.804;-0.550;2024-02-28T02:36:39;3.75;3.00;3.00
80289;PMS7003;69592;44.804;-0.550;2024-02-28T02:39:04;6.50;4.00;3.75
80289;PMS7003;69592;44.804;-0.550;2024-02-28T02:41:29;4.50;3.25;2.00
80289;PMS7003;69592;44.804;-0.550;2024-02-28T02:43:54;3.25;3.25;3.00
80289;PMS7003;69592;44.804;-0.550;2024-02-28T02:46:20;3.75;1.50;1.00
80289;PMS7003;69592;44.804;-0.550;2024-02-28T02:48:45;3.50;3.00;3.00
80289;PMS7003;69592;44.804;-0.550;2024-02-28T02:51:10;2.75;1.50;1.00
80289;PMS7003;69592;44.804;-0.550;2024-02-28T02:53:36;3.00;3.00;2.50
80289;PMS7003;69592;44.804;-0.550;2024-02-28T02:56:03;3.00;3.00;2.00
80289;PMS7003;69592;44.804;-0.550;2024-02-28T02:58:28;5.50;3.75;3.00
80289;PMS7003;69592;44.804;-0.550;2024-02-28T03:00:54;4.00;3.00;3.00
80289;PMS7003;69592;44.804;-0.550;2024-02-28T03:03:19;3.50;3.50;3.00
80289;PMS7003;69592;44.804;-0.550;2024-02-28T03:05:44;6.75;3.00;3.00
80289;PMS7003;69592;44.804;-0.550;2024-02-28T03:08:09;3.00;3.00;3.00
80289;PMS7003;69592;44.804;-0.550;2024-02-28T03:10:34;3.00;3.00;3.00
80289;PMS7003;69592;44.804;-0.550;2024-02-28T03:13:00;5.00;5.00;3.00
80289;PMS7003;69592;44.804;-0.550;2024-02-28T03:15:26;6.50;4.00;3.00
80289;PMS7003;69592;44.804;-0.550;2024-02-28T03:17:52;3.00;2.50;2.00
80289;PMS7003;69592;44.804;-0.550;2024-02-28T03:20:17;1.00;1.00;1.00
80289;PMS7003;69592;44.804;-0.550;2024-02-28T03:22:42;1.50;1.50;1.00
80289;PMS7003;69592;44.804;-0.550;2024-02-28T03:25:08;3.25;1.50;1.00
80289;PMS7003;69592;44.804;-0.550;2024-02-28T03:27:34;5.00;3.00;1.00
80289;PMS7003;69592;44.804;-0.550;2024-02-28T03:29:59;2.50;2.50;2.00
80289;PMS7003;69592;44.804;-0.550;2024-02-28T03:32:24;3.00;3.00;1.50
80289;PMS7003;69592;44.804;-0.550;2024-02-28T03:34:50;4.00;3.00;1.00
80289;PMS7003;69592;44.804;-0.550;2024-02-28T03:37:15;3.00;3.00;1.00
80289;PMS7003;69592;44.804;-0.550;2024-02-28T03:39:41;3.00;3.00;1.00
80289;PMS7003;69592;44.804;-0.550;2024-02-28T03:42:06;3.00;3.00;1.00
80289;PMS7003;69592;44.804;-0.550;2024-02-28T03:44:32;1.00;1.00;1.00
80289;PMS7003;69592;44.804;-0.550;2024-02-28T03:46:57;4.00;3.00;2.00
80289;PMS7003;69592;44.804;-0.550;2024-02-28T03:49:22;4.50;4.00;3.75
80289;PMS7003;69592;44.804;-0.550;2024-02-28T03:51:48;3.25;3.25;1.50
80289;PMS7003;69592;44.804;-0.550;2024-02-28T03:54:13;5.50;3.50;3.00
80289;PMS7003;69592;44.804;-0.550;2024-02-28T03:56:39;4.00;3.00;3.00
80289;PMS7003;69592;44.804;-0.550;2024-02-28T03:59:04;4.50;2.00;2.00
80289;PMS7003;69592;44.804;-0.550;2024-02-28T04:01:30;3.00;3.00;3.00
80289;PMS7003;69592;44.804;-0.550;2024-02-28T04:03:55;2.00;1.00;1.00
80289;PMS7003;69592;44.804;-0.550;2024-02-28T04:06:21;1.00;1.00;0.00
80289;PMS7003;69592;44.804;-0.550;2024-02-28T04:08:46;4.50;2.00;1.00
80289;PMS7003;69592;44.804;-0.550;2024-02-28T04:11:12;1.00;1.00;1.00
80289;PMS7003;69592;44.804;-0.550;2024-02-28T04:13:37;3.25;3.25;2.50
80289;PMS7003;69592;44.804;-0.550;2024-02-28T04:16:03;2.25;0.75;0.75
80289;PMS7003;69592;44.804;-0.550;2024-02-28T04:18:28;1.00;1.00;1.00
80289;PMS7003;69592;44.804;-0.550;2024-02-28T04:20:55;3.50;3.00;1.00
80289;PMS7003;69592;44.804;-0.550;2024-02-28T04:23:20;2.50;2.50;0.00
80289;PMS7003;69592;44.804;-0.550;2024-02-28T04:25:46;3.00;3.00;1.00
80289;PMS7003;69592;44.804;-0.550;2024-02-28T04:28:11;5.00;3.25;3.00
80289;PMS7003;69592;44.804;-0.550;2024-02-28T04:30:36;6.00;1.00;1.00
80289;PMS7003;69592;44.804;-0.550;2024-02-28T04:33:02;3.00;3.00;1.50
80289;PMS7003;69592;44.804;-0.550;2024-02-28T04:35:27;2.00;2.00;1.00
80289;PMS7003;69592;44.804;-0.550;2024-02-28T04:37:53;2.75;2.75;1.00
80289;PMS7003;69592;44.804;-0.550;2024-02-28T04:40:18;3.25;3.25;3.00
80289;PMS7003;69592;44.804;-0.550;2024-02-28T04:42:43;1.50;1.50;1.00
80289;PMS7003;69592;44.804;-0.550;2024-02-28T04:45:09;6.50;6.00;4.00
80289;PMS7003;69592;44.804;-0.550;2024-02-28T04:47:36;3.75;3.75;3.00
80289;PMS7003;69592;44.804;-0.550;2024-02-28T04:50:02;3.50;3.50;3.00
80289;PMS7003;69592;44.804;-0.550;2024-02-28T04:52:30;3.00;3.00;1.00
80289;PMS7003;69592;44.804;-0.550;2024-02-28T04:54:55;3.00;3.00;3.00
80289;PMS7003;69592;44.804;-0.550;2024-02-28T04:57:22;6.00;6.00;4.00
80289;PMS7003;69592;44.804;-0.550;2024-02-28T04:59:48;6.00;6.00;4.00
80289;PMS7003;69592;44.804;-0.550;2024-02-28T05:02:13;7.50;7.50;6.00
80289;PMS7003;69592;44.804;-0.550;2024-02-28T05:04:38;5.00;5.00;3.50
80289;PMS7003;69592;44.804;-0.550;2024-02-28T05:07:04;4.50;4.50;3.50
80289;PMS7003;69592;44.804;-0.550;2024-02-28T05:09:32;4.00;4.00;3.00
80289;PMS7003;69592;44.804;-0.550;2024-02-28T05:11:57;4.75;4.00;3.00
80289;PMS7003;69592;44.804;-0.550;2024-02-28T05:14:23;6.00;3.25;3.00
80289;PMS7003;69592;44.804;-0.550;2024-02-28T05:16:48;4.00;4.00;3.50
80289;PMS7003;69592;44.804;-0.550;2024-02-28T05:19:14;3.25;3.25;3.00
80289;PMS7003;69592;44.804;-0.550;2024-02-28T05:21:42;5.00;5.00;3.50
80289;PMS7003;69592;44.804;-0.550;2024-02-28T05:24:08;4.00;4.00;3.00
80289;PMS7003;69592;44.804;-0.550;2024-02-28T05:26:34;10.75;4.50;3.50
80289;PMS7003;69592;44.804;-0.550;2024-02-28T05:29:01;7.00;6.00;4.00
80289;PMS7003;69592;44.804;-0.550;2024-02-28T05:31:28;4.00;4.00;4.00
80289;PMS7003;69592;44.804;-0.550;2024-02-28T05:33:54;8.50;6.00;6.00
80289;PMS7003;69592;44.804;-0.550;2024-02-28T05:36:22;6.00;6.00;4.00
80289;PMS7003;69592;44.804;-0.550;2024-02-28T05:38:48;6.00;6.00;4.00
80289;PMS7003;69592;44.804;-0.550;2024-02-28T05:41:15;5.00;3.75;3.00
80289;PMS7003;69592;44.804;-0.550;2024-02-28T05:43:42;5.00;4.00;3.00
80289;PMS7003;69592;44.804;-0.550;2024-02-28T05:46:07;7.00;5.00;4.00
80289;PMS7003;69592;44.804;-0.550;2024-02-28T05:48:33;8.00;7.00;4.00
80289;PMS7003;69592;44.804;-0.550;2024-02-28T05:51:00;9.50;7.50;6.00
80289;PMS7003;69592;44.804;-0.550;2024-02-28T05:53:26;5.50;5.50;4.00
80289;PMS7003;69592;44.804;-0.550;2024-02-28T05:55:52;6.00;6.00;5.00
80289;PMS7003;69592;44.804;-0.550;2024-02-28T05:58:21;8.00;6.00;5.00
80289;PMS7003;69592;44.804;-0.550;2024-02-28T06:00:50;6.00;4.25;3.25
80289;PMS7003;69592;44.804;-0.550;2024-02-28T06:03:16;9.00;9.00;6.25
80289;PMS7003;69592;44.804;-0.550;2024-02-28T06:05:41;9.75;9.75;7.00
80289;PMS7003;69592;44.804;-0.550;2024-02-28T06:08:07;15.50;9.50;6.00
80289;PMS7003;69592;44.804;-0.550;2024-02-28T06:10:32;13.50;11.50;8.00
80289;PMS7003;69592;44.804;-0.550;2024-02-28T06:12:58;8.75;8.75;7.25
80289;PMS7003;69592;44.804;-0.550;2024-02-28T06:15:23;15.75;10.00;8.00
80289;PMS7003;69592;44.804;-0.550;2024-02-28T06:17:49;14.50;13.75;10.50
80289;PMS7003;69592;44.804;-0.550;2024-02-28T06:20:14;19.25;17.00;11.00
80289;PMS7003;69592;44.804;-0.550;2024-02-28T06:22:40;15.25;14.25;9.75
80289;PMS7003;69592;44.804;-0.550;2024-02-28T06:25:06;18.75;17.50;12.00
80289;PMS7003;69592;44.804;-0.550;2024-02-28T06:27:38;13.00;13.00;10.00
80289;PMS7003;69592;44.804;-0.550;2024-02-28T06:30:04;20.75;19.25;14.25
80289;PMS7003;69592;44.804;-0.550;2024-02-28T06:32:34;18.25;18.25;15.00
80289;PMS7003;69592;44.804;-0.550;2024-02-28T06:34:59;12.75;12.75;10.00
80289;PMS7003;69592;44.804;-0.550;2024-02-28T06:37:27;12.00;7.00;5.50
80289;PMS7003;69592;44.804;-0.550;2024-02-28T06:39:53;13.50;12.00;9.00
80289;PMS7003;69592;44.804;-0.550;2024-02-28T06:42:18;14.75;12.00;10.00
80289;PMS7003;69592;44.804;-0.550;2024-02-28T06:44:43;12.25;12.25;7.50
80289;PMS7003;69592;44.804;-0.550;2024-02-28T06:47:09;13.00;13.00;9.75
80289;PMS7003;69592;44.804;-0.550;2024-02-28T06:49:34;19.00;14.00;12.00
80289;PMS7003;69592;44.804;-0.550;2024-02-28T06:51:59;11.50;11.50;9.00
80289;PMS7003;69592;44.804;-0.550;2024-02-28T06:54:26;16.00;16.00;12.00
80289;PMS7003;69592;44.804;-0.550;2024-02-28T06:56:51;14.75;12.50;11.00
80289;PMS7003;69592;44.804;-0.550;2024-02-28T06:59:17;13.50;12.50;9.50
80289;PMS7003;69592;44.804;-0.550;2024-02-28T07:01:42;15.75;13.50;12.00
80289;PMS7003;69592;44.804;-0.550;2024-02-28T07:04:08;21.50;17.00;10.00
80289;PMS7003;69592;44.804;-0.550;2024-02-28T07:06:33;17.75;16.25;12.00
80289;PMS7003;69592;44.804;-0.550;2024-02-28T07:08:59;10.50;10.50;6.50
80289;PMS7003;69592;44.804;-0.550;2024-02-28T07:11:24;18.50;15.00;12.00
80289;PMS7003;69592;44.804;-0.550;2024-02-28T07:13:49;14.00;13.75;9.75
80289;PMS7003;69592;44.804;-0.550;2024-02-28T07:16:15;15.25;13.50;10.00
80289;PMS7003;69592;44.804;-0.550;2024-02-28T07:18:40;15.25;13.00;9.75
80289;PMS7003;69592;44.804;-0.550;2024-02-28T07:21:06;15.00;12.25;9.75
80289;PMS7003;69592;44.804;-0.550;2024-02-28T07:23:32;16.75;15.75;10.75
80289;PMS7003;69592;44.804;-0.550;2024-02-28T07:25:57;15.75;15.75;10.50
80289;PMS7003;69592;44.804;-0.550;2024-02-28T07:28:23;18.00;16.50;13.00
80289;PMS7003;69592;44.804;-0.550;2024-02-28T07:30:48;18.75;18.00;15.00
80289;PMS7003;69592;44.804;-0.550;2024-02-28T07:33:13;16.00;14.00;12.00
80289;PMS7003;69592;44.804;-0.550;2024-02-28T07:35:45;16.25;13.00;10.00
80289;PMS7003;69592;44.804;-0.550;2024-02-28T07:38:14;15.75;15.50;12.50
80289;PMS7003;69592;44.804;-0.550;2024-02-28T07:40:41;14.25;13.25;12.00
80289;PMS7003;69592;44.804;-0.550;2024-02-28T07:43:06;16.75;15.00;10.00
80289;PMS7003;69592;44.804;-0.550;2024-02-28T07:45:32;22.75;20.25;16.00
80289;PMS7003;69592;44.804;-0.550;2024-02-28T07:47:57;31.00;29.33;22.67
80289;PMS7003;69592;44.804;-0.550;2024-02-28T07:50:22;25.50;25.50;18.25
80289;PMS7003;69592;44.804;-0.550;2024-02-28T07:52:48;23.75;23.75;16.00
80289;PMS7003;69592;44.804;-0.550;2024-02-28T07:55:13;22.00;21.00;17.00
80289;PMS7003;69592;44.804;-0.550;2024-02-28T07:57:39;22.00;21.00;16.50
80289;PMS7003;69592;44.804;-0.550;2024-02-28T08:00:04;48.67;42.00;30.00
80289;PMS7003;69592;44.804;-0.550;2024-02-28T08:02:30;39.00;33.33;24.00
80289;PMS7003;69592;44.804;-0.550;2024-02-28T08:04:56;38.33;36.67;27.67
80289;PMS7003;69592;44.804;-0.550;2024-02-28T08:07:21;25.00;21.25;15.00
80289;PMS7003;69592;44.804;-0.550;2024-02-28T08:09:47;27.50;26.00;18.25
80289;PMS7003;69592;44.804;-0.550;2024-02-28T08:12:12;32.25;29.00;20.00
80289;PMS7003;69592;44.804;-0.550;2024-02-28T08:14:37;28.50;24.25;17.50
80289;PMS7003;69592;44.804;-0.550;2024-02-28T08:17:03;20.00;20.00;13.75
80289;PMS7003;69592;44.804;-0.550;2024-02-28T08:19:28;17.75;17.75;13.50
80289;PMS7003;69592;44.804;-0.550;2024-02-28T08:21:54;18.00;16.00;13.50
80289;PMS7003;69592;44.804;-0.550;2024-02-28T08:24:19;19.25;18.50;13.25
80289;PMS7003;69592;44.804;-0.550;2024-02-28T08:26:44;18.75;18.00;13.00
80289;PMS7003;69592;44.804;-0.550;2024-02-28T08:29:12;17.50;16.00;12.00
80289;PMS7003;69592;44.804;-0.550;2024-02-28T08:31:41;21.25;18.50;13.00
80289;PMS7003;69592;44.804;-0.550;2024-02-28T08:34:08;21.25;18.00;12.75
80289;PMS7003;69592;44.804;-0.550;2024-02-28T08:36:34;19.50;19.00;15.50
80289;PMS7003;69592;44.804;-0.550;2024-02-28T08:39:00;18.75;18.75;15.00
80289;PMS7003;69592;44.804;-0.550;2024-02-28T08:41:25;18.00;16.75;12.50
80289;PMS7003;69592;44.804;-0.550;2024-02-28T08:43:50;22.75;22.75;15.75
80289;PMS7003;69592;44.804;-0.550;2024-02-28T08:46:16;22.50;22.25;18.00
80289;PMS7003;69592;44.804;-0.550;2024-02-28T08:48:41;22.75;22.00;16.00
80289;PMS7003;69592;44.804;-0.550;2024-02-28T08:51:07;18.50;17.25;12.00
80289;PMS7003;69592;44.804;-0.550;2024-02-28T08:53:32;23.00;20.00;14.25
80289;PMS7003;69592;44.804;-0.550;2024-02-28T08:55:58;22.50;21.50;15.75
80289;PMS7003;69592;44.804;-0.550;2024-02-28T08:58:23;20.25;18.75;14.25
80289;PMS7003;69592;44.804;-0.550;2024-02-28T09:00:49;19.25;16.00;13.00
80289;PMS7003;69592;44.804;-0.550;2024-02-28T09:03:14;20.50;20.00;14.25
80289;PMS7003;69592;44.804;-0.550;2024-02-28T09:05:39;24.00;23.00;18.50
80289;PMS7003;69592;44.804;-0.550;2024-02-28T09:08:05;22.75;21.75;16.50
80289;PMS7003;69592;44.804;-0.550;2024-02-28T09:10:30;18.00;18.00;13.25
80289;PMS7003;69592;44.804;-0.550;2024-02-28T09:12:59;23.50;21.75;16.50
80289;PMS7003;69592;44.804;-0.550;2024-02-28T09:15:24;24.25;23.25;17.25
80289;PMS7003;69592;44.804;-0.550;2024-02-28T09:17:50;27.50;25.50;17.00
80289;PMS7003;69592;44.804;-0.550;2024-02-28T09:20:15;22.25;21.00;16.00
80289;PMS7003;69592;44.804;-0.550;2024-02-28T09:22:42;22.00;19.50;14.50
80289;PMS7003;69592;44.804;-0.550;2024-02-28T09:25:07;23.75;20.25;14.25
80289;PMS7003;69592;44.804;-0.550;2024-02-28T09:27:34;31.50;29.50;21.25
80289;PMS7003;69592;44.804;-0.550;2024-02-28T09:30:00;21.75;20.75;16.25
80289;PMS7003;69592;44.804;-0.550;2024-02-28T09:32:26;24.75;21.25;16.75
80289;PMS7003;69592;44.804;-0.550;2024-02-28T09:34:51;29.75;25.75;19.00
80289;PMS7003;69592;44.804;-0.550;2024-02-28T09:37:16;21.50;17.75;13.50
80289;PMS7003;69592;44.804;-0.550;2024-02-28T09:39:42;25.25;20.25;15.75
80289;PMS7003;69592;44.804;-0.550;2024-02-28T09:42:07;21.50;20.00;14.00
80289;PMS7003;69592;44.804;-0.550;2024-02-28T09:44:34;22.25;21.00;15.00
80289;PMS7003;69592;44.804;-0.550;2024-02-28T09:46:59;21.25;21.00;17.00
80289;PMS7003;69592;44.804;-0.550;2024-02-28T09:49:25;16.75;14.25;13.75
80289;PMS7003;69592;44.804;-0.550;2024-02-28T09:51:54;19.00;18.00;14.00
80289;PMS7003;69592;44.804;-0.550;2024-02-28T09:54:22;21.25;18.25;16.75
80289;PMS7003;69592;44.804;-0.550;2024-02-28T09:56:47;17.75;15.00;9.25
80289;PMS7003;69592;44.804;-0.550;2024-02-28T09:59:13;22.00;20.50;14.50
80289;PMS7003;69592;44.804;-0.550;2024-02-28T10:01:42;20.00;18.00;13.75
80289;PMS7003;69592;44.804;-0.550;2024-02-28T10:04:07;24.25;21.00;14.75
80289;PMS7003;69592;44.804;-0.550;2024-02-28T10:06:36;17.00;14.25;11.00
80289;PMS7003;69592;44.804;-0.550;2024-02-28T10:09:01;18.25;14.00;11.00
80289;PMS7003;69592;44.804;-0.550;2024-02-28T10:11:26;17.75;17.25;12.75
80289;PMS7003;69592;44.804;-0.550;2024-02-28T10:13:52;15.00;15.00;12.50
80289;PMS7003;69592;44.804;-0.550;2024-02-28T10:16:17;15.00;15.00;11.00
80289;PMS7003;69592;44.804;-0.550;2024-02-28T10:18:43;13.50;13.50;8.00
80289;PMS7003;69592;44.804;-0.550;2024-02-28T10:21:09;19.25;16.50;12.00
80289;PMS7003;69592;44.804;-0.550;2024-02-28T10:23:40;12.25;8.75;7.75
80289;PMS7003;69592;44.804;-0.550;2024-02-28T10:26:08;16.25;13.50;12.00
80289;PMS7003;69592;44.804;-0.550;2024-02-28T10:28:36;16.25;15.25;12.25
80289;PMS7003;69592;44.804;-0.550;2024-02-28T10:31:01;15.50;15.00;12.00
80289;PMS7003;69592;44.804;-0.550;2024-02-28T10:33:27;14.75;12.75;11.00
80289;PMS7003;69592;44.804;-0.550;2024-02-28T10:35:55;12.75;12.25;9.75
80289;PMS7003;69592;44.804;-0.550;2024-02-28T10:38:21;15.25;12.75;10.75
80289;PMS7003;69592;44.804;-0.550;2024-02-28T10:40:46;13.25;12.75;9.50
80289;PMS7003;69592;44.804;-0.550;2024-02-28T10:43:16;9.25;8.75;6.50
80289;PMS7003;69592;44.804;-0.550;2024-02-28T10:45:42;9.50;9.00;8.00
80289;PMS7003;69592;44.804;-0.550;2024-02-28T10:48:07;13.75;13.00;9.00
80289;PMS7003;69592;44.804;-0.550;2024-02-28T10:50:33;8.00;8.00;6.00
80289;PMS7003;69592;44.804;-0.550;2024-02-28T10:53:00;9.00;8.75;8.00
80289;PMS7003;69592;44.804;-0.550;2024-02-28T10:55:27;10.50;9.00;7.50
80289;PMS7003;69592;44.804;-0.550;2024-02-28T10:58:03;8.50;8.00;6.50
80289;PMS7003;69592;44.804;-0.550;2024-02-28T11:00:29;8.75;6.00;4.75
80289;PMS7003;69592;44.804;-0.550;2024-02-28T11:02:56;5.50;5.50;4.25
80289;PMS7003;69592;44.804;-0.550;2024-02-28T11:05:21;6.00;6.00;5.00
80289;PMS7003;69592;44.804;-0.550;2024-02-28T11:07:50;9.00;8.00;6.00
80289;PMS7003;69592;44.804;-0.550;2024-02-28T11:10:16;9.00;6.00;5.00
80289;PMS7003;69592;44.804;-0.550;2024-02-28T11:12:41;7.25;4.50;4.00
80289;PMS7003;69592;44.804;-0.550;2024-02-28T11:15:15;5.00;5.00;4.00
80289;PMS7003;69592;44.804;-0.550;2024-02-28T11:17:40;8.50;4.50;3.50
80289;PMS7003;69592;44.804;-0.550;2024-02-28T11:20:12;5.75;5.75;4.75
80289;PMS7003;69592;44.804;-0.550;2024-02-28T11:22:39;5.75;5.25;4.00
80289;PMS7003;69592;44.804;-0.550;2024-02-28T11:25:04;2.25;2.25;1.75
80289;PMS7003;69592;44.804;-0.550;2024-02-28T11:27:30;5.00;5.00;2.50
80289;PMS7003;69592;44.804;-0.550;2024-02-28T11:29:55;5.00;5.00;4.00
80289;PMS7003;69592;44.804;-0.550;2024-02-28T11:32:21;5.00;5.00;4.00
80289;PMS7003;69592;44.804;-0.550;2024-02-28T11:34:49;5.25;5.25;4.75
80289;PMS7003;69592;44.804;-0.550;2024-02-28T11:37:16;4.75;4.00;2.00
80289;PMS7003;69592;44.804;-0.550;2024-02-28T11:39:46;1.75;1.75;1.25
80289;PMS7003;69592;44.804;-0.550;2024-02-28T11:42:12;4.25;2.50;2.00
80289;PMS7003;69592;44.804;-0.550;2024-02-28T11:44:41;3.25;1.50;1.00
80289;PMS7003;69592;44.804;-0.550;2024-02-28T11:47:09;3.00;3.00;2.00
80289;PMS7003;69592;44.804;-0.550;2024-02-28T11:49:38;2.25;2.25;2.00
80289;PMS7003;69592;44.804;-0.550;2024-02-28T11:52:06;2.00;1.00;1.00
80289;PMS7003;69592;44.804;-0.550;2024-02-28T11:54:31;1.75;1.75;1.75
80289;PMS7003;69592;44.804;-0.550;2024-02-28T11:56:57;2.00;2.00;2.00
80289;PMS7003;69592;44.804;-0.550;2024-02-28T11:59:22;2.75;2.75;2.00
80289;PMS7003;69592;44.804;-0.550;2024-02-28T12:01:47;2.00;2.00;2.00
80289;PMS7003;69592;44.804;-0.550;2024-02-28T12:04:13;2.00;2.00;2.00
80289;PMS7003;69592;44.804;-0.550;2024-02-28T12:06:39;1.00;1.00;0.00
80289;PMS7003;69592;44.804;-0.550;2024-02-28T12:09:04;2.00;1.00;1.00
80289;PMS7003;69592;44.804;-0.550;2024-02-28T12:11:32;2.75;1.00;1.00
80289;PMS7003;69592;44.804;-0.550;2024-02-28T12:13:57;2.75;2.75;2.50
80289;PMS7003;69592;44.804;-0.550;2024-02-28T12:16:26;0.50;0.50;0.00
80289;PMS7003;69592;44.804;-0.550;2024-02-28T12:18:52;1.00;1.00;1.00
80289;PMS7003;69592;44.804;-0.550;2024-02-28T12:21:18;2.00;2.00;2.00
80289;PMS7003;69592;44.804;-0.550;2024-02-28T12:23:43;3.00;3.00;3.00
80289;PMS7003;69592;44.804;-0.550;2024-02-28T12:26:08;6.00;4.50;3.00
80289;PMS7003;69592;44.804;-0.550;2024-02-28T12:28:34;2.00;1.00;1.00
80289;PMS7003;69592;44.804;-0.550;2024-02-28T12:30:59;1.00;1.00;1.00
80289;PMS7003;69592;44.804;-0.550;2024-02-28T12:33:24;1.75;1.75;1.00
80289;PMS7003;69592;44.804;-0.550;2024-02-28T12:35:50;1.00;1.00;1.00
80289;PMS7003;69592;44.804;-0.550;2024-02-28T12:38:16;5.25;5.25;5.00
80289;PMS7003;69592;44.804;-0.550;2024-02-28T12:40:41;1.50;1.00;1.00
80289;PMS7003;69592;44.804;-0.550;2024-02-28T12:43:07;7.75;7.75;6.75
80289;PMS7003;69592;44.804;-0.550;2024-02-28T12:45:32;10.00;10.00;9.00
80289;PMS7003;69592;44.804;-0.550;2024-02-28T12:47:57;1.25;1.25;1.00
80289;PMS7003;69592;44.804;-0.550;2024-02-28T12:50:23;7.00;7.00;6.50
80289;PMS7003;69592;44.804;-0.550;2024-02-28T12:52:49;15.25;15.25;14.00
80289;PMS7003;69592;44.804;-0.550;2024-02-28T12:55:18;2.00;2.00;2.00
80289;PMS7003;69592;44.804;-0.550;2024-02-28T12:57:43;5.75;2.00;2.00
80289;PMS7003;69592;44.804;-0.550;2024-02-28T13:00:10;10.25;10.25;9.00
80289;PMS7003;69592;44.804;-0.550;2024-02-28T13:02:35;14.75;14.75;13.50
80289;PMS7003;69592;44.804;-0.550;2024-02-28T13:05:01;2.00;2.00;1.00
80289;PMS7003;69592;44.804;-0.550;2024-02-28T13:07:29;2.00;2.00;2.00
80289;PMS7003;69592;44.804;-0.550;2024-02-28T13:09:55;6.25;5.00;4.00
80289;PMS7003;69592;44.804;-0.550;2024-02-28T13:12:20;2.00;2.00;1.75
80289;PMS7003;69592;44.804;-0.550;2024-02-28T13:14:46;3.75;2.50;2.00
80289;PMS7003;69592;44.804;-0.550;2024-02-28T13:17:12;1.25;1.25;1.00
80289;PMS7003;69592;44.804;-0.550;2024-02-28T13:19:37;2.00;2.00;1.00
80289;PMS7003;69592;44.804;-0.550;2024-02-28T13:22:03;2.00;2.00;1.00
80289;PMS7003;69592;44.804;-0.550;2024-02-28T13:24:28;2.75;2.00;1.75
80289;PMS7003;69592;44.804;-0.550;2024-02-28T13:26:53;5.75;5.00;4.00
80289;PMS7003;69592;44.804;-0.550;2024-02-28T13:29:19;10.50;10.50;9.00
80289;PMS7003;69592;44.804;-0.550;2024-02-28T13:31:44;5.00;4.50;3.00
80289;PMS7003;69592;44.804;-0.550;2024-02-28T13:34:09;2.00;2.00;1.67
80289;PMS7003;69592;44.804;-0.550;2024-02-28T13:36:34;2.75;1.00;1.00
80289;PMS7003;69592;44.804;-0.550;2024-02-28T13:39:02;6.00;6.00;4.25
80289;PMS7003;69592;44.804;-0.550;2024-02-28T13:41:27;5.50;1.75;1.50
80289;PMS7003;69592;44.804;-0.550;2024-02-28T13:43:52;11.00;11.00;8.25
80289;PMS7003;69592;44.804;-0.550;2024-02-28T13:46:17;2.33;2.33;2.00
80289;PMS7003;69592;44.804;-0.550;2024-02-28T13:48:44;3.00;3.00;3.00
80289;PMS7003;69592;44.804;-0.550;2024-02-28T13:51:09;1.00;1.00;1.00